createdAt,value
2023-04-19T00:01:32.679Z,4.55
2023-04-19T00:03:59.649Z,5.18
2023-04-19T00:06:30.361Z,5.07
2023-04-19T00:08:57.630Z,4.57
2023-04-19T00:11:24.937Z,5.00
2023-04-19T00:13:51.790Z,4.50
2023-04-19T00:16:18.646Z,4.68
2023-04-19T00:18:46.805Z,5.00
2023-04-19T00:21:13.654Z,4.45
2023-04-19T00:23:40.589Z,4.60
2023-04-19T00:26:07.353Z,5.10
2023-04-19T00:28:35.086Z,4.43
2023-04-19T00:31:02.023Z,5.03
2023-04-19T00:33:28.833Z,4.88
2023-04-19T00:35:55.549Z,4.43
2023-04-19T00:38:22.288Z,4.45
2023-04-19T00:40:49.008Z,4.93
2023-04-19T00:43:22.262Z,4.82
2023-04-19T00:45:49.856Z,4.65
2023-04-19T00:48:17.198Z,4.85
2023-04-19T00:50:45.424Z,4.53
2023-04-19T00:53:12.461Z,4.75
2023-04-19T00:55:39.745Z,4.40
2023-04-19T00:58:07.676Z,4.53
2023-04-19T01:00:35.000Z,4.95
2023-04-19T01:03:01.852Z,4.85
2023-04-19T01:05:28.724Z,4.72
2023-04-19T01:07:55.458Z,4.85
2023-04-19T01:10:22.257Z,4.65
2023-04-19T01:12:49.008Z,4.60
2023-04-19T01:15:15.821Z,4.72
2023-04-19T01:17:42.941Z,5.28
2023-04-19T01:20:10.699Z,5.03
2023-04-19T01:22:40.287Z,5.07
2023-04-19T01:25:07.624Z,5.15
2023-04-19T01:27:34.770Z,5.30
2023-04-19T01:30:01.566Z,5.40
2023-04-19T01:32:28.416Z,5.38
2023-04-19T01:34:55.334Z,5.55
2023-04-19T01:37:22.334Z,6.07
2023-04-19T01:39:49.330Z,5.78
2023-04-19T01:42:16.181Z,5.75
2023-04-19T01:44:42.972Z,5.85
2023-04-19T01:47:09.854Z,5.75
2023-04-19T01:49:36.778Z,5.70
2023-04-19T01:52:03.693Z,6.00
2023-04-19T01:54:30.537Z,5.50
2023-04-19T01:56:57.377Z,5.70
2023-04-19T01:59:24.340Z,6.03
2023-04-19T02:01:51.125Z,6.15
2023-04-19T02:04:20.584Z,6.43
2023-04-19T02:06:47.403Z,6.07
2023-04-19T02:09:14.170Z,5.80
2023-04-19T02:11:41.007Z,6.55
2023-04-19T02:14:07.687Z,5.80
2023-04-19T02:16:35.999Z,6.15
2023-04-19T02:19:03.431Z,6.45
2023-04-19T02:21:30.174Z,6.50
2023-04-19T02:23:56.952Z,6.28
2023-04-19T02:26:24.710Z,6.57
2023-04-19T02:28:52.947Z,6.47
2023-04-19T02:31:19.885Z,7.03
2023-04-19T02:33:46.902Z,6.53
2023-04-19T02:36:13.643Z,6.82
2023-04-19T02:38:40.814Z,7.07
2023-04-19T02:41:07.737Z,6.70
2023-04-19T02:43:34.500Z,7.20
2023-04-19T02:46:01.846Z,6.97
2023-04-19T02:48:28.810Z,6.50
2023-04-19T02:50:55.659Z,7.22
2023-04-19T02:53:22.638Z,7.35
2023-04-19T02:55:49.678Z,7.13
2023-04-19T02:58:16.480Z,7.40
2023-04-19T03:00:43.254Z,7.80
2023-04-19T03:03:10.276Z,7.10
2023-04-19T03:05:37.257Z,7.22
2023-04-19T03:08:04.213Z,7.18
2023-04-19T03:10:31.035Z,7.18
2023-04-19T03:12:57.790Z,7.07
2023-04-19T03:15:24.565Z,6.90
2023-04-19T03:17:51.339Z,7.60
2023-04-19T03:20:18.256Z,7.18
2023-04-19T03:22:45.429Z,7.40
2023-04-19T03:25:15.034Z,7.80
2023-04-19T03:27:41.865Z,6.78
2023-04-19T03:30:09.386Z,7.22
2023-04-19T03:32:36.414Z,6.50
2023-04-19T03:35:03.630Z,7.25
2023-04-19T03:37:30.448Z,7.40
2023-04-19T03:39:57.365Z,7.38
2023-04-19T03:42:24.088Z,8.02
2023-04-19T03:44:50.814Z,7.30
2023-04-19T03:47:17.553Z,7.43
2023-04-19T03:49:44.397Z,7.35
2023-04-19T03:52:11.151Z,8.23
2023-04-19T03:54:37.948Z,7.50
2023-04-19T03:57:04.740Z,7.00
2023-04-19T03:59:31.992Z,7.03
2023-04-19T04:01:59.017Z,7.10
2023-04-19T04:04:26.050Z,7.47
2023-04-19T04:06:52.897Z,7.60
2023-04-19T04:09:19.749Z,7.43
2023-04-19T04:11:46.522Z,7.47
2023-04-19T04:14:16.965Z,7.00
2023-04-19T04:16:44.112Z,7.25
2023-04-19T04:19:11.087Z,7.47
2023-04-19T04:21:37.845Z,7.47
2023-04-19T04:24:05.321Z,6.97
2023-04-19T04:26:33.924Z,7.05
2023-04-19T04:29:01.918Z,8.45
2023-04-19T04:31:28.728Z,7.68
2023-04-19T04:33:55.632Z,7.47
2023-04-19T04:36:22.355Z,7.25
2023-04-19T04:38:49.294Z,6.75
2023-04-19T04:41:16.699Z,7.68
2023-04-19T04:43:43.581Z,6.97
2023-04-19T04:46:10.512Z,7.63
2023-04-19T04:48:37.364Z,7.38
2023-04-19T04:51:04.254Z,7.20
2023-04-19T04:53:31.074Z,7.40
2023-04-19T04:55:57.965Z,7.10
2023-04-19T04:58:24.798Z,7.15
2023-04-19T05:00:51.718Z,7.30
2023-04-19T05:03:18.586Z,7.65
2023-04-19T05:05:45.508Z,7.53
2023-04-19T05:08:12.442Z,7.88
2023-04-19T05:10:39.218Z,8.40
2023-04-19T05:13:05.877Z,8.18
2023-04-19T05:15:32.696Z,8.20
2023-04-19T05:17:59.699Z,8.13
2023-04-19T05:20:26.688Z,7.80
2023-04-19T05:23:01.450Z,8.65
2023-04-19T05:25:28.263Z,8.93
2023-04-19T05:27:55.017Z,8.27
2023-04-19T05:30:21.889Z,8.60
2023-04-19T05:32:48.735Z,9.05
2023-04-19T05:35:15.643Z,8.55
2023-04-19T05:37:42.419Z,8.60
2023-04-19T05:40:10.353Z,8.88
2023-04-19T05:42:38.132Z,9.27
2023-04-19T05:45:06.688Z,8.35
2023-04-19T05:47:33.815Z,9.25
2023-04-19T05:50:00.688Z,9.27
2023-04-19T05:52:27.524Z,9.25
2023-04-19T05:54:54.227Z,8.32
2023-04-19T05:57:20.967Z,9.07
2023-04-19T05:59:47.801Z,8.82
2023-04-19T06:02:14.842Z,9.00
2023-04-19T06:04:41.955Z,8.95
2023-04-19T06:07:17.788Z,9.15
2023-04-19T06:09:55.850Z,9.02
2023-04-19T06:12:22.752Z,8.82
2023-04-19T06:14:49.654Z,8.80
2023-04-19T06:17:17.020Z,8.45
2023-04-19T06:19:43.864Z,8.57
2023-04-19T06:22:10.683Z,8.10
2023-04-19T06:24:37.493Z,8.57
2023-04-19T06:27:04.336Z,7.93
2023-04-19T06:29:31.098Z,8.52
2023-04-19T06:31:58.001Z,8.63
2023-04-19T06:34:25.115Z,7.82
2023-04-19T06:36:51.973Z,7.93
2023-04-19T06:39:18.725Z,8.40
2023-04-19T06:41:45.835Z,8.05
2023-04-19T06:44:13.436Z,8.02
2023-04-19T06:46:40.306Z,8.27
2023-04-19T06:49:07.277Z,7.43
2023-04-19T06:51:34.159Z,7.53
2023-04-19T06:54:00.988Z,7.38
2023-04-19T06:56:47.445Z,7.65
2023-04-19T06:59:16.594Z,7.65
2023-04-19T07:01:44.295Z,7.45
2023-04-19T07:04:12.328Z,7.10
2023-04-19T07:06:39.888Z,7.90
2023-04-19T07:09:07.698Z,6.95
2023-04-19T07:11:34.818Z,6.70
2023-04-19T07:14:01.719Z,7.65
2023-04-19T07:16:28.839Z,7.28
2023-04-19T07:18:55.933Z,6.47
2023-04-19T07:21:24.837Z,6.30
2023-04-19T07:23:51.520Z,6.63
2023-04-19T07:26:18.460Z,6.32
2023-04-19T07:28:45.217Z,6.38
2023-04-19T07:31:16.713Z,5.78
2023-04-19T07:33:44.134Z,5.43
2023-04-19T07:36:11.576Z,5.22
2023-04-19T07:38:38.710Z,5.60
2023-04-19T07:41:06.597Z,5.20
2023-04-19T07:43:33.776Z,5.22
2023-04-19T07:46:00.744Z,5.75
2023-04-19T07:48:27.704Z,5.00
2023-04-19T07:50:54.583Z,4.40
2023-04-19T07:53:21.453Z,4.78
2023-04-19T07:55:48.193Z,4.63
2023-04-19T07:58:14.968Z,4.72
2023-04-19T08:00:41.707Z,4.80
2023-04-19T08:03:08.723Z,4.65
2023-04-19T08:05:35.772Z,4.70
2023-04-19T08:08:02.776Z,4.20
2023-04-19T08:10:30.945Z,4.00
2023-04-19T08:13:05.649Z,4.30
2023-04-19T08:18:07.381Z,3.97
2023-04-19T08:20:34.625Z,3.80
2023-04-19T08:23:10.519Z,3.90
2023-04-19T08:25:45.335Z,3.90
2023-04-19T08:28:12.712Z,3.85
2023-04-19T08:30:40.403Z,4.10
2023-04-19T08:33:07.165Z,4.20
2023-04-19T08:35:36.138Z,4.18
2023-04-19T08:38:04.470Z,3.70
2023-04-19T08:40:31.725Z,4.00
2023-04-19T08:42:58.895Z,4.00
2023-04-19T08:45:29.388Z,3.63
2023-04-19T08:48:01.181Z,3.72
2023-04-19T08:53:12.160Z,3.63
2023-04-19T08:56:06.992Z,3.50
2023-04-19T09:01:06.652Z,3.65
2023-04-19T09:03:41.210Z,3.50
2023-04-19T09:06:12.146Z,3.42
2023-04-19T09:08:41.077Z,3.38
2023-04-19T09:11:07.955Z,3.70
2023-04-19T09:13:38.324Z,3.08
2023-04-19T09:16:07.901Z,3.17
2023-04-19T09:19:08.520Z,3.25
2023-04-19T09:21:45.081Z,3.53
2023-04-19T09:24:12.032Z,3.47
2023-04-19T09:26:38.973Z,3.40
2023-04-19T09:29:06.788Z,3.20
2023-04-19T09:34:15.821Z,3.83
2023-04-19T09:36:42.919Z,3.28
2023-04-19T09:39:10.784Z,2.83
2023-04-19T09:41:53.877Z,3.15
2023-04-19T09:45:01.764Z,3.38
2023-04-19T09:47:29.984Z,3.40
2023-04-19T09:50:21.373Z,2.85
2023-04-19T09:52:51.038Z,3.15
2023-04-19T09:57:48.968Z,3.20
2023-04-19T10:00:16.294Z,2.90
2023-04-19T10:02:45.179Z,3.17
2023-04-19T10:05:20.284Z,3.22
2023-04-19T10:07:49.420Z,2.88
2023-04-19T10:10:20.679Z,3.03
2023-04-19T10:13:15.450Z,3.08
2023-04-19T10:15:50.576Z,3.20
2023-04-19T10:18:21.215Z,3.30
2023-04-19T10:21:06.606Z,3.30
2023-04-19T10:23:34.356Z,3.15
2023-04-19T10:26:01.127Z,2.90
2023-04-19T10:28:34.149Z,2.92
2023-04-19T10:31:03.286Z,3.00
2023-04-19T10:33:34.325Z,2.83
2023-04-19T10:36:01.514Z,3.20
2023-04-19T10:38:44.451Z,3.35
2023-04-19T10:41:18.474Z,3.00
2023-04-19T10:43:58.155Z,3.15
2023-04-19T10:46:26.256Z,3.05
2023-04-19T10:49:00.722Z,3.10
2023-04-19T10:51:28.470Z,3.03
2023-04-19T10:54:08.386Z,3.50
2023-04-19T10:56:35.334Z,2.90
2023-04-19T11:23:24.392Z,3.47
2023-04-19T11:25:52.829Z,3.25
2023-04-19T11:28:21.593Z,3.15
2023-04-19T11:30:49.876Z,3.47
2023-04-19T11:33:24.662Z,3.40
2023-04-19T11:35:51.526Z,3.20
2023-04-19T11:38:18.355Z,3.10
2023-04-19T11:40:45.260Z,3.15
2023-04-19T11:43:12.142Z,3.10
2023-04-19T11:45:43.948Z,3.00
2023-04-19T11:48:24.037Z,3.20
2023-04-19T11:50:50.897Z,3.20
2023-04-19T11:53:18.742Z,2.97
2023-04-19T11:55:51.493Z,2.92
2023-04-19T11:58:33.527Z,2.90
2023-04-19T12:01:12.681Z,2.70
2023-04-19T12:03:50.220Z,2.72
2023-04-19T12:06:22.232Z,2.60
2023-04-19T12:08:51.275Z,2.42
2023-04-19T12:11:21.628Z,2.65
2023-04-19T12:13:49.144Z,2.70
2023-04-19T12:16:27.927Z,2.60
2023-04-19T12:18:54.669Z,2.40
2023-04-19T12:21:32.466Z,2.38
2023-04-19T12:24:05.454Z,2.38
2023-04-19T12:26:32.573Z,2.50
2023-04-19T12:29:01.074Z,2.30
2023-04-19T12:31:28.018Z,2.50
2023-04-19T12:33:56.249Z,2.20
2023-04-19T12:36:25.619Z,2.10
2023-04-19T12:38:52.422Z,2.20
2023-04-19T12:41:19.425Z,2.28
2023-04-19T12:43:46.370Z,2.20
2023-04-19T12:46:13.142Z,2.40
2023-04-19T12:48:39.963Z,2.63
2023-04-19T12:51:06.714Z,2.20
2023-04-19T12:53:33.502Z,2.00
2023-04-19T12:56:05.679Z,2.20
2023-04-19T12:58:32.482Z,2.00
2023-04-19T13:01:00.166Z,1.80
2023-04-19T13:03:27.324Z,2.03
2023-04-19T13:05:54.383Z,1.92
2023-04-19T13:08:28.113Z,2.00
2023-04-19T13:11:00.658Z,2.00
2023-04-19T13:13:27.362Z,1.70
2023-04-19T13:15:54.119Z,1.80
2023-04-19T13:18:22.279Z,1.60
2023-04-19T13:20:50.559Z,1.67
2023-04-19T13:23:17.304Z,1.90
2023-04-19T13:25:44.059Z,1.77
2023-04-19T13:28:10.853Z,1.67
2023-04-19T13:30:37.653Z,1.70
2023-04-19T13:33:06.108Z,1.50
2023-04-19T13:35:34.197Z,1.40
2023-04-19T13:38:00.939Z,1.80
2023-04-19T13:40:27.642Z,1.60
2023-04-19T13:42:56.738Z,1.35
2023-04-19T13:45:23.451Z,1.20
2023-04-19T13:48:51.459Z,1.30
2023-04-19T13:59:09.592Z,1.30
2023-04-19T14:01:37.069Z,1.20
2023-04-19T14:04:04.397Z,1.30
2023-04-19T14:06:32.235Z,1.40
2023-04-19T14:08:59.151Z,1.38
2023-04-19T14:11:26.381Z,1.08
2023-04-19T14:13:53.629Z,1.13
2023-04-19T14:16:24.241Z,1.00
2023-04-19T14:18:51.893Z,1.20
2023-04-19T14:21:19.240Z,1.27
2023-04-19T14:23:46.272Z,1.20
2023-04-19T14:26:13.493Z,1.30
2023-04-19T14:28:40.496Z,1.27
2023-04-19T14:31:07.402Z,1.20
2023-04-19T14:33:34.427Z,1.42
2023-04-19T14:36:01.630Z,1.30
2023-04-19T14:38:28.624Z,2.22
2023-04-19T14:40:56.289Z,1.25
2023-04-19T14:43:23.235Z,1.20
2023-04-19T14:45:50.176Z,1.10
2023-04-19T14:48:17.108Z,1.20
2023-04-19T14:50:44.063Z,2.40
2023-04-19T14:53:10.886Z,1.20
2023-04-19T14:55:38.277Z,1.30
2023-04-19T14:58:05.779Z,1.27
2023-04-19T15:00:33.298Z,1.20
2023-04-19T15:03:01.376Z,1.10
2023-04-19T15:05:28.619Z,1.10
2023-04-19T15:07:55.609Z,1.40
2023-04-19T15:10:22.440Z,1.38
2023-04-19T15:12:49.159Z,1.40
2023-04-19T15:15:16.213Z,1.50
2023-04-19T15:17:43.287Z,1.67
2023-04-19T15:20:10.565Z,1.55
2023-04-19T15:22:37.440Z,1.30
2023-04-19T15:25:04.620Z,1.40
2023-04-19T15:27:31.522Z,1.33
2023-04-19T15:29:58.324Z,1.55
2023-04-19T15:32:25.216Z,1.40
2023-04-19T15:34:52.106Z,1.38
2023-04-19T15:37:18.942Z,1.20
2023-04-19T15:39:45.771Z,1.25
2023-04-19T15:42:12.816Z,1.60
2023-04-19T15:44:40.268Z,1.40
2023-04-19T15:47:07.823Z,1.58
2023-04-19T15:49:34.565Z,1.30
2023-04-19T15:52:01.465Z,1.60
2023-04-19T15:54:28.896Z,1.48
2023-04-19T15:56:56.041Z,1.40
2023-04-19T15:59:22.888Z,1.58
2023-04-19T16:01:49.732Z,1.40
2023-04-19T16:04:16.872Z,1.48
2023-04-19T16:06:43.825Z,1.58
2023-04-19T16:09:10.713Z,1.60
2023-04-19T16:11:39.102Z,1.45
2023-04-19T16:14:05.947Z,1.70
2023-04-19T16:16:34.354Z,2.30
2023-04-19T16:19:01.355Z,1.55
2023-04-19T16:21:28.895Z,1.60
2023-04-19T16:23:56.192Z,1.80
2023-04-19T16:26:23.544Z,1.60
2023-04-19T16:28:50.499Z,1.80
2023-04-19T16:31:17.455Z,1.60
2023-04-19T16:33:44.800Z,1.55
2023-04-19T16:36:11.678Z,1.80
2023-04-19T16:38:38.423Z,1.50
2023-04-19T16:41:05.868Z,1.60
2023-04-19T16:43:32.961Z,1.50
2023-04-19T16:45:59.801Z,1.70
2023-04-19T16:48:27.127Z,1.67
2023-04-19T16:50:54.035Z,1.70
2023-04-19T16:53:21.039Z,1.90
2023-04-19T16:55:47.961Z,1.60
2023-04-19T16:58:15.050Z,1.70
2023-04-19T17:00:41.876Z,1.63
2023-04-19T17:03:11.958Z,1.85
2023-04-19T17:05:38.935Z,1.77
2023-04-19T17:08:05.870Z,1.60
2023-04-19T17:10:32.639Z,1.70
2023-04-19T17:12:59.536Z,1.90
2023-04-19T17:15:26.739Z,1.70
2023-04-19T17:17:53.562Z,1.70
2023-04-19T17:20:20.461Z,1.90
2023-04-19T17:22:47.299Z,1.80
2023-04-19T17:25:14.505Z,1.75
2023-04-19T17:27:41.546Z,1.80
2023-04-19T17:30:08.844Z,1.92
2023-04-19T17:32:35.874Z,1.60
2023-04-19T17:35:04.112Z,1.67
2023-04-19T17:37:31.349Z,1.80
2023-04-19T17:39:58.242Z,1.70
2023-04-19T17:42:26.028Z,1.70
2023-04-19T17:44:53.198Z,1.70
2023-04-19T17:47:20.578Z,1.80
2023-04-19T17:49:47.702Z,1.85
2023-04-19T17:52:14.569Z,2.30
2023-04-19T17:54:41.308Z,2.10
2023-04-19T17:57:08.195Z,1.80
2023-04-19T17:59:35.242Z,2.10
2023-04-19T18:02:02.522Z,1.98
2023-04-19T18:04:30.980Z,1.90
2023-04-19T18:06:57.879Z,2.17
2023-04-19T18:09:24.638Z,1.90
2023-04-19T18:11:51.494Z,2.20
2023-04-19T18:14:18.319Z,2.20
2023-04-19T18:16:45.229Z,1.80
2023-04-19T18:19:12.128Z,2.00
2023-04-19T18:21:38.988Z,2.20
2023-04-19T18:24:06.379Z,2.08
2023-04-19T18:26:38.238Z,2.08
2023-04-19T18:29:05.256Z,2.03
2023-04-19T18:31:32.150Z,2.00
2023-04-19T18:34:00.443Z,2.20
2023-04-19T18:36:28.708Z,2.00
2023-04-19T18:38:55.967Z,1.83
2023-04-19T18:41:22.833Z,2.38
2023-04-19T18:44:12.825Z,2.22
2023-04-19T18:46:36.487Z,2.13
2023-04-19T18:49:03.259Z,2.40
2023-04-19T18:51:30.172Z,2.25
2023-04-19T18:53:57.045Z,2.10
2023-04-19T18:56:54.203Z,2.10
2023-04-19T19:23:53.693Z,2.05
2023-04-19T19:26:20.599Z,1.95
2023-04-19T19:28:47.427Z,2.90
2023-04-19T19:31:14.390Z,2.50
2023-04-19T19:33:41.240Z,2.20
2023-04-19T19:36:08.009Z,2.10
2023-04-19T19:38:37.908Z,2.35
2023-04-19T19:41:55.147Z,2.20
2023-04-19T19:43:54.458Z,2.08
2023-04-19T19:46:24.300Z,2.10
2023-04-19T19:48:53.793Z,2.30
2023-04-19T19:51:52.391Z,2.10
2023-04-19T19:54:11.516Z,2.30
2023-04-19T19:56:48.121Z,2.05
2023-04-19T20:29:07.897Z,1.95
2023-04-19T20:31:34.692Z,1.88
2023-04-19T20:34:01.440Z,1.95
2023-04-19T20:36:28.321Z,2.03
2023-04-19T20:38:56.958Z,1.85
2023-04-19T20:41:23.800Z,2.17
2023-04-19T20:43:50.658Z,2.00
2023-04-19T20:46:17.692Z,2.10
2023-04-19T20:48:44.563Z,2.05
2023-04-19T20:51:12.717Z,2.10
2023-04-19T20:53:39.600Z,2.00
2023-04-19T20:56:07.410Z,2.00
2023-04-19T21:24:26.328Z,2.13
2023-04-19T21:26:53.240Z,1.92
2023-04-19T21:29:20.898Z,2.00
2023-04-19T21:31:48.006Z,2.10
2023-04-19T21:34:19.519Z,2.28
2023-04-19T21:36:46.273Z,2.15
2023-04-19T21:39:13.034Z,2.17
2023-04-19T21:41:39.798Z,2.00
